Overview Statistics Trail Chart Weather Telemetry Raw packets
 

This is the latest recevied weather packets stored in our database for station/object KO4YAW. If no packets are shown the sender has not sent any weather packets the latest 10 day(s).

<< 10 11 12 13 14 15 16 >>
Time Temp. Humidity Pressure Rain* Wind** Luminosity Snow
1788410029 19.44° C 58% 1018.3 hPa 0 mm - 0 W/m² -
1788409129 19.44° C 61% 1018.2 hPa 0 mm - 0 W/m² -
1788408229 19.44° C 60% 1018.3 hPa 0 mm - 0 W/m² -
1788407329 20° C 58% 1018.4 hPa 0 mm - 0 W/m² -
1788406429 20.56° C 56% 1017.9 hPa 0 mm - 0 W/m² -
1788405529 21.11° C 56% 1017.8 hPa 0 mm - 0 W/m² -
1788404629 22.78° C 45% 1018.6 hPa 0 mm - 0 W/m² -
1788403729 23.33° C 41% 1017.8 hPa 0 mm - 0 W/m² -
1788402829 23.33° C 40% 1017.1 hPa 0 mm - 0 W/m² -
1788401929 24.44° C 37% 1016.7 hPa 0 mm - 0 W/m² -
1788401029 24.44° C 36% 1016.7 hPa 0 mm - 0 W/m² -
1788400129 25.56° C 37% 1016.5 hPa 0 mm - 0 W/m² -
1788399229 26.67° C 32% 1016.5 hPa 0 mm - 3 W/m² -
1788398329 27.22° C 31% 1016.3 hPa 0 mm - 8 W/m² -
1788397429 28.33° C 30% 1016.3 hPa 0 mm - 17 W/m² -
1788396529 30.56° C 27% 1016 hPa 0 mm - 29 W/m² -
1788395629 31.67° C 26% 1015.9 hPa 0 mm - 98 W/m² -
1788394729 31.67° C 26% 1016 hPa 0 mm - 142 W/m² -
1788393829 31.67° C 26% 1015.9 hPa 0 mm - 205 W/m² -
1788392929 31.11° C 25% 1015.9 hPa 0 mm - 134 W/m² -
1788392029 31.67° C 25% 1015.9 hPa 0 mm - 97 W/m² -
1788391129 31.67° C 24% 1015.9 hPa 0 mm - 344 W/m² -
1788390229 31.67° C 23% 1015.9 hPa 0 mm - 352 W/m² -
1788389329 32.78° C 22% 1015.9 hPa 0 mm - 449 W/m² -
1788388429 31.67° C 23% 1016 hPa 0 mm - 517 W/m² -

* Rain since midnight (hover to see other rain measurements)
** Current wind speed in m/s (hover to see current wind gust speed)